PPJVF SDEN-SBBI
Flight info
| Callsign | PPJVF |
|---|---|
| Flight time | N/A |
| Altitude | 19000 |
| Route | 270644S0483062W DCT OPVIS/N0246F180 |
| Aircraft | BE9L/L-SBDFGRY/SB1 |
Departure
| Time | 2026-05-08 16:22 |
|---|---|
| Airport | Costa Esmeralda Airport (SDEN) |
Arrival
| Time | N/A |
|---|---|
| Airport | Bacacheri Airport (SBBI) |
| Time | Latitude | Longitude | Altitude | Speed | Heading |
|---|---|---|---|---|---|
| 2026-05-08 16:10 | -27.16743 | -48.61979 | 32 ft | 0 kts | 39° |
| 2026-05-08 16:17 | -27.16744 | -48.61979 | 32 ft | 0 kts | 43° |
| 2026-05-08 16:17 | -27.16745 | -48.61981 | 32 ft | 0 kts | 49° |
| 2026-05-08 16:18 | -27.16742 | -48.61979 | 32 ft | 1 kts | 4° |
| 2026-05-08 16:18 | -27.16736 | -48.61989 | 34 ft | 3 kts | 263° |
| 2026-05-08 16:18 | -27.16774 | -48.62008 | 32 ft | 10 kts | 180° |
| 2026-05-08 16:19 | -27.16835 | -48.61952 | 31 ft | 12 kts | 131° |
| 2026-05-08 16:19 | -27.16884 | -48.61881 | 33 ft | 10 kts | 130° |
| 2026-05-08 16:19 | -27.16926 | -48.61825 | 34 ft | 9 kts | 133° |
| 2026-05-08 16:19 | -27.16966 | -48.61770 | 34 ft | 10 kts | 121° |
| 2026-05-08 16:20 | -27.16998 | -48.61725 | 33 ft | 8 kts | 126° |
| 2026-05-08 16:20 | -27.17025 | -48.61676 | 34 ft | 4 kts | 242° |
| 2026-05-08 16:20 | -27.17023 | -48.61707 | 33 ft | 0 kts | 311° |
| 2026-05-08 16:21 | -27.16984 | -48.61756 | 33 ft | 35 kts | 311° |
| 2026-05-08 16:21 | -27.16667 | -48.62162 | 34 ft | 100 kts | 310° |
| 2026-05-08 16:21 | -27.16124 | -48.62848 | 333 ft | 125 kts | 315° |
| 2026-05-08 16:22 | -27.15416 | -48.63415 | 920 ft | 128 kts | 351° |
| 2026-05-08 16:22 | -27.14574 | -48.63596 | 1597 ft | 123 kts | 339° |
| 2026-05-08 16:22 | -27.13776 | -48.63926 | 2259 ft | 119 kts | 339° |
| 2026-05-08 16:22 | -27.12975 | -48.64118 | 2858 ft | 122 kts | 336° |
| 2026-05-08 16:23 | -27.12114 | -48.64351 | 3281 ft | 128 kts | 337° |
| 2026-05-08 16:23 | -27.11219 | -48.64593 | 3811 ft | 133 kts | 336° |
| 2026-05-08 16:23 | -27.10354 | -48.64822 | 4380 ft | 134 kts | 332° |
| 2026-05-08 16:23 | -27.09454 | -48.65055 | 5038 ft | 124 kts | 335° |
| 2026-05-08 16:24 | -27.08622 | -48.65297 | 5586 ft | 129 kts | 334° |
| 2026-05-08 16:24 | -27.07705 | -48.65555 | 5825 ft | 136 kts | 338° |
| 2026-05-08 16:24 | -27.06812 | -48.65783 | 6433 ft | 128 kts | 336° |
| 2026-05-08 16:24 | -27.05941 | -48.66017 | 7030 ft | 129 kts | 337° |
| 2026-05-08 16:25 | -27.05066 | -48.66256 | 7579 ft | 133 kts | 338° |
| 2026-05-08 16:25 | -27.04151 | -48.66504 | 8117 ft | 137 kts | 338° |
| 2026-05-08 16:25 | -27.03214 | -48.66758 | 8660 ft | 140 kts | 338° |
| 2026-05-08 16:25 | -27.02261 | -48.67016 | 9195 ft | 143 kts | 338° |
| 2026-05-08 16:26 | -27.01283 | -48.67281 | 9703 ft | 147 kts | 338° |
| 2026-05-08 16:26 | -27.00282 | -48.67550 | 10185 ft | 149 kts | 338° |
| 2026-05-08 16:26 | -26.99275 | -48.67822 | 10687 ft | 150 kts | 339° |
| 2026-05-08 16:26 | -26.98256 | -48.68096 | 11213 ft | 151 kts | 339° |
| 2026-05-08 16:27 | -26.97226 | -48.68374 | 11734 ft | 153 kts | 339° |
| 2026-05-08 16:27 | -26.96185 | -48.68656 | 12250 ft | 155 kts | 339° |
| 2026-05-08 16:27 | -26.95136 | -48.68937 | 12767 ft | 156 kts | 339° |
| 2026-05-08 16:27 | -26.94071 | -48.69227 | 13286 ft | 158 kts | 339° |
| 2026-05-08 16:28 | -26.92998 | -48.69516 | 13776 ft | 159 kts | 339° |
| 2026-05-08 16:28 | -26.91920 | -48.69806 | 14117 ft | 161 kts | 339° |
| 2026-05-08 16:28 | -26.90831 | -48.70098 | 14466 ft | 161 kts | 339° |
| 2026-05-08 16:28 | -26.89742 | -48.70392 | 14812 ft | 161 kts | 339° |
| 2026-05-08 16:29 | -26.88646 | -48.70687 | 15147 ft | 162 kts | 339° |
| 2026-05-08 16:29 | -26.87548 | -48.70983 | 15482 ft | 163 kts | 339° |
| 2026-05-08 16:29 | -26.86445 | -48.71280 | 15814 ft | 163 kts | 340° |
| 2026-05-08 16:29 | -26.85338 | -48.71579 | 16140 ft | 164 kts | 340° |
| 2026-05-08 16:30 | -26.84230 | -48.71877 | 16469 ft | 164 kts | 339° |
| 2026-05-08 16:30 | -26.83480 | -48.72079 | 16694 ft | 164 kts | 339° |
| 2026-05-08 16:30 | -26.82368 | -48.72378 | 17004 ft | 165 kts | 339° |
| 2026-05-08 16:30 | -26.81250 | -48.72679 | 17320 ft | 165 kts | 339° |
| 2026-05-08 16:31 | -26.80129 | -48.72981 | 17634 ft | 166 kts | 339° |
| 2026-05-08 16:31 | -26.79018 | -48.73280 | 17931 ft | 167 kts | 339° |
| 2026-05-08 16:31 | -26.77886 | -48.73585 | 18222 ft | 167 kts | 339° |
| 2026-05-08 16:31 | -26.76750 | -48.73890 | 18474 ft | 168 kts | 339° |
| 2026-05-08 16:32 | -26.75610 | -48.74197 | 18711 ft | 169 kts | 339° |
| 2026-05-08 16:32 | -26.74435 | -48.74515 | 18799 ft | 178 kts | 339° |
| 2026-05-08 16:32 | -26.73202 | -48.74847 | 18850 ft | 186 kts | 340° |
| 2026-05-08 16:32 | -26.71916 | -48.75191 | 18858 ft | 193 kts | 340° |
| 2026-05-08 16:33 | -26.70587 | -48.75547 | 18865 ft | 199 kts | 340° |
| 2026-05-08 16:33 | -26.69226 | -48.75904 | 18858 ft | 203 kts | 343° |
| 2026-05-08 16:33 | -26.67774 | -48.75900 | 18864 ft | 217 kts | 2° |
| 2026-05-08 16:33 | -26.66291 | -48.75459 | 18863 ft | 223 kts | 7° |
| 2026-05-08 16:34 | -26.64809 | -48.74948 | 18856 ft | 223 kts | 8° |
| 2026-05-08 16:34 | -26.63319 | -48.74433 | 18857 ft | 224 kts | 7° |
| 2026-05-08 16:34 | -26.61822 | -48.73930 | 18848 ft | 224 kts | 7° |
| 2026-05-08 16:34 | -26.60343 | -48.73446 | 18841 ft | 219 kts | 6° |
| 2026-05-08 16:35 | -26.58884 | -48.72983 | 18842 ft | 216 kts | 6° |
| 2026-05-08 16:35 | -26.57434 | -48.72540 | 18838 ft | 215 kts | 5° |
| 2026-05-08 16:35 | -26.56008 | -48.72120 | 18834 ft | 214 kts | 5° |
| 2026-05-08 16:35 | -26.54571 | -48.71711 | 18841 ft | 213 kts | 4° |
| 2026-05-08 16:36 | -26.53138 | -48.71318 | 18837 ft | 211 kts | 4° |
| 2026-05-08 16:36 | -26.51709 | -48.70942 | 18840 ft | 211 kts | 3° |
| 2026-05-08 16:36 | -26.50279 | -48.70581 | 18842 ft | 210 kts | 3° |
| 2026-05-08 16:36 | -26.48849 | -48.70235 | 18840 ft | 210 kts | 2° |
| 2026-05-08 16:37 | -26.47417 | -48.69904 | 18842 ft | 210 kts | 2° |
| 2026-05-08 16:37 | -26.45987 | -48.69587 | 18840 ft | 209 kts | 1° |
| 2026-05-08 16:37 | -26.44558 | -48.69287 | 18841 ft | 209 kts | 1° |
| 2026-05-08 16:37 | -26.43125 | -48.69001 | 18840 ft | 208 kts | 0° |
| 2026-05-08 16:38 | -26.41698 | -48.68732 | 18840 ft | 208 kts | 0° |
| 2026-05-08 16:38 | -26.40290 | -48.68603 | 18836 ft | 194 kts | 340° |
| 2026-05-08 16:38 | -26.39172 | -48.69317 | 18848 ft | 184 kts | 319° |
| 2026-05-08 16:38 | -26.38128 | -48.70161 | 18855 ft | 186 kts | 325° |
| 2026-05-08 16:39 | -26.36972 | -48.70830 | 18843 ft | 188 kts | 331° |
| 2026-05-08 16:39 | -26.35771 | -48.71402 | 18854 ft | 188 kts | 333° |
| 2026-05-08 16:39 | -26.34566 | -48.71960 | 18858 ft | 187 kts | 332° |
| 2026-05-08 16:39 | -26.33365 | -48.72526 | 18857 ft | 188 kts | 332° |
| 2026-05-08 16:40 | -26.32163 | -48.73096 | 18857 ft | 188 kts | 332° |
| 2026-05-08 16:40 | -26.30960 | -48.73665 | 18856 ft | 188 kts | 332° |
| 2026-05-08 16:40 | -26.29757 | -48.74235 | 18859 ft | 188 kts | 332° |
| 2026-05-08 16:40 | -26.28550 | -48.74806 | 18860 ft | 188 kts | 332° |
| 2026-05-08 16:41 | -26.27344 | -48.75376 | 18837 ft | 188 kts | 332° |
| 2026-05-08 16:41 | -26.26139 | -48.75946 | 18837 ft | 188 kts | 332° |
| 2026-05-08 16:41 | -26.24933 | -48.76516 | 18837 ft | 188 kts | 332° |
| 2026-05-08 16:42 | -26.22522 | -48.77656 | 18836 ft | 188 kts | 332° |
| 2026-05-08 16:42 | -26.21314 | -48.78227 | 18836 ft | 189 kts | 332° |
| 2026-05-08 16:42 | -26.20106 | -48.78797 | 18836 ft | 189 kts | 332° |
| 2026-05-08 16:42 | -26.18895 | -48.79369 | 18835 ft | 189 kts | 332° |
| 2026-05-08 16:43 | -26.17680 | -48.79942 | 18806 ft | 189 kts | 333° |
| 2026-05-08 16:43 | -26.16473 | -48.80512 | 18821 ft | 189 kts | 333° |
| 2026-05-08 16:43 | -26.15264 | -48.81083 | 18819 ft | 189 kts | 333° |
| 2026-05-08 16:43 | -26.14072 | -48.81645 | 18821 ft | 188 kts | 333° |
| 2026-05-08 16:44 | -26.12866 | -48.82213 | 18820 ft | 188 kts | 333° |
| 2026-05-08 16:44 | -26.11663 | -48.82781 | 18824 ft | 188 kts | 333° |
| 2026-05-08 16:44 | -26.10461 | -48.83348 | 18824 ft | 187 kts | 333° |
| 2026-05-08 16:44 | -26.09260 | -48.83914 | 18829 ft | 187 kts | 333° |
| 2026-05-08 16:45 | -26.08062 | -48.84479 | 18829 ft | 187 kts | 333° |
| 2026-05-08 16:45 | -26.06864 | -48.85043 | 18832 ft | 187 kts | 333° |
| 2026-05-08 16:45 | -26.05664 | -48.85608 | 18833 ft | 187 kts | 333° |
| 2026-05-08 16:45 | -26.04466 | -48.86172 | 18834 ft | 187 kts | 333° |
| 2026-05-08 16:46 | -26.03274 | -48.86733 | 18841 ft | 186 kts | 333° |
| 2026-05-08 16:46 | -26.02083 | -48.87295 | 18840 ft | 185 kts | 333° |
| 2026-05-08 16:46 | -26.00895 | -48.87854 | 18864 ft | 186 kts | 333° |
| 2026-05-08 16:46 | -25.99700 | -48.88416 | 18866 ft | 186 kts | 333° |
| 2026-05-08 16:47 | -25.98502 | -48.88980 | 18865 ft | 187 kts | 333° |
| 2026-05-08 16:47 | -25.97306 | -48.89542 | 18863 ft | 186 kts | 334° |
| 2026-05-08 16:47 | -25.96107 | -48.90106 | 18864 ft | 187 kts | 334° |
| 2026-05-08 16:47 | -25.94906 | -48.90671 | 18863 ft | 188 kts | 334° |
| 2026-05-08 16:48 | -25.93700 | -48.91238 | 18878 ft | 188 kts | 334° |
| 2026-05-08 16:48 | -25.92492 | -48.91805 | 18880 ft | 188 kts | 334° |
| 2026-05-08 16:48 | -25.91286 | -48.92372 | 18879 ft | 188 kts | 334° |
| 2026-05-08 16:48 | -25.90079 | -48.92938 | 18880 ft | 188 kts | 334° |
| 2026-05-08 16:49 | -25.88872 | -48.93506 | 18879 ft | 188 kts | 334° |
| 2026-05-08 16:49 | -25.87664 | -48.94072 | 18876 ft | 188 kts | 334° |
| 2026-05-08 16:49 | -25.86477 | -48.94628 | 18878 ft | 188 kts | 334° |
| 2026-05-08 16:49 | -25.85273 | -48.95196 | 18882 ft | 188 kts | 334° |
| 2026-05-08 16:50 | -25.84066 | -48.95762 | 18887 ft | 189 kts | 334° |
| 2026-05-08 16:50 | -25.82848 | -48.96332 | 18889 ft | 190 kts | 334° |
| 2026-05-08 16:50 | -25.81633 | -48.96896 | 18901 ft | 188 kts | 334° |
| 2026-05-08 16:50 | -25.80424 | -48.97471 | 18906 ft | 189 kts | 334° |
| 2026-05-08 16:51 | -25.79211 | -48.98038 | 18914 ft | 189 kts | 334° |
| 2026-05-08 16:51 | -25.78000 | -48.98605 | 18923 ft | 189 kts | 334° |
| 2026-05-08 16:51 | -25.76786 | -48.99174 | 18921 ft | 190 kts | 334° |
| 2026-05-08 16:51 | -25.75567 | -48.99745 | 18927 ft | 190 kts | 334° |
| 2026-05-08 16:52 | -25.74347 | -49.00317 | 18932 ft | 190 kts | 334° |
| 2026-05-08 16:52 | -25.73126 | -49.00888 | 18940 ft | 191 kts | 334° |
| 2026-05-08 16:52 | -25.71904 | -49.01460 | 18944 ft | 191 kts | 334° |
| 2026-05-08 16:52 | -25.70680 | -49.02033 | 18949 ft | 191 kts | 334° |
| 2026-05-08 16:53 | -25.68240 | -49.03175 | 18965 ft | 190 kts | 334° |
| 2026-05-08 16:53 | -25.67019 | -49.03746 | 18971 ft | 191 kts | 334° |
| 2026-05-08 16:53 | -25.65798 | -49.04317 | 18977 ft | 190 kts | 334° |
| 2026-05-08 16:54 | -25.64552 | -49.04901 | 18783 ft | 199 kts | 334° |
| 2026-05-08 16:54 | -25.63203 | -49.05532 | 18039 ft | 218 kts | 335° |
| 2026-05-08 16:54 | -25.61774 | -49.06195 | 17185 ft | 227 kts | 335° |
| 2026-05-08 16:54 | -25.60317 | -49.06873 | 16359 ft | 233 kts | 335° |
| 2026-05-08 16:55 | -25.58808 | -49.07577 | 15542 ft | 237 kts | 335° |
| 2026-05-08 16:55 | -25.57277 | -49.08293 | 14723 ft | 240 kts | 335° |
| 2026-05-08 16:55 | -25.55701 | -49.09029 | 13675 ft | 250 kts | 334° |
| 2026-05-08 16:55 | -25.54629 | -49.09504 | 13339 ft | 90 kts | 330° |
| 2026-05-08 16:56 | -25.53703 | -49.09964 | 12098 ft | 180 kts | 332° |
| 2026-05-08 16:56 | -25.52527 | -49.10526 | 11779 ft | 187 kts | 333° |
| 2026-05-08 16:56 | -25.51303 | -49.11098 | 11361 ft | 191 kts | 333° |
| 2026-05-08 16:56 | -25.50078 | -49.11661 | 10932 ft | 190 kts | 333° |
| 2026-05-08 16:57 | -25.48864 | -49.12225 | 10497 ft | 188 kts | 333° |
| 2026-05-08 16:57 | -25.47719 | -49.12930 | 9838 ft | 190 kts | 318° |
| 2026-05-08 16:57 | -25.46871 | -49.14046 | 9050 ft | 192 kts | 302° |
| 2026-05-08 16:57 | -25.46330 | -49.15405 | 8248 ft | 194 kts | 296° |
| 2026-05-08 16:58 | -25.45813 | -49.16779 | 7450 ft | 193 kts | 296° |
| 2026-05-08 16:58 | -25.45252 | -49.18118 | 6691 ft | 190 kts | 303° |
| 2026-05-08 16:58 | -25.44466 | -49.19275 | 5883 ft | 188 kts | 309° |
| 2026-05-08 16:58 | -25.43655 | -49.20421 | 5064 ft | 191 kts | 309° |
| 2026-05-08 16:59 | -25.42840 | -49.21552 | 4345 ft | 189 kts | 311° |
| 2026-05-08 16:59 | -25.41832 | -49.22521 | 3390 ft | 199 kts | 322° |
| 2026-05-08 16:59 | -25.40625 | -49.23149 | 3122 ft | 186 kts | 338° |
| 2026-05-08 16:59 | -25.39369 | -49.23678 | 3304 ft | 189 kts | 338° |
| 2026-05-08 17:00 | -25.38133 | -49.24234 | 3476 ft | 203 kts | 334° |
| 2026-05-08 17:00 | -25.36956 | -49.24881 | 4033 ft | 190 kts | 328° |
| 2026-05-08 17:00 | -25.35898 | -49.25701 | 4540 ft | 176 kts | 321° |
| 2026-05-08 17:00 | -25.35047 | -49.26606 | 5089 ft | 165 kts | 313° |
| 2026-05-08 17:01 | -25.34371 | -49.27604 | 5676 ft | 162 kts | 304° |
| 2026-05-08 17:01 | -25.33867 | -49.28702 | 6241 ft | 157 kts | 296° |